createdAt,value
2022-12-08T00:01:34.775Z,5.52
2022-12-08T00:04:05.965Z,5.40
2022-12-08T00:07:02.043Z,5.29
2022-12-08T00:09:41.611Z,5.24
2022-12-08T00:12:13.945Z,5.35
2022-12-08T00:14:47.743Z,5.52
2022-12-08T00:17:18.048Z,5.38
2022-12-08T00:19:46.421Z,5.48
2022-12-08T00:22:17.480Z,5.41
2022-12-08T00:24:46.338Z,6.13
2022-12-08T00:27:16.321Z,5.86
2022-12-08T00:29:46.128Z,5.70
2022-12-08T00:32:13.445Z,5.26
2022-12-08T00:34:40.857Z,5.15
2022-12-08T00:37:08.046Z,5.02
2022-12-08T00:39:35.379Z,5.00
2022-12-08T00:42:14.944Z,4.95
2022-12-08T00:44:46.463Z,4.77
2022-12-08T00:47:15.155Z,4.47
2022-12-08T00:49:42.789Z,4.05
2022-12-08T00:52:10.233Z,4.08
2022-12-08T00:54:37.527Z,4.05
2022-12-08T00:57:04.815Z,4.11
2022-12-08T00:59:32.029Z,3.68
2022-12-08T01:02:00.191Z,3.26
2022-12-08T01:04:27.961Z,3.02
2022-12-08T01:06:55.354Z,2.84
2022-12-08T01:09:23.162Z,3.29
2022-12-08T01:11:50.620Z,3.49
2022-12-08T01:14:21.617Z,3.67
2022-12-08T01:16:51.857Z,3.69
2022-12-08T01:19:19.599Z,3.65
2022-12-08T01:21:47.442Z,3.26
2022-12-08T01:24:21.303Z,3.02
2022-12-08T01:26:51.081Z,2.93
2022-12-08T01:29:18.666Z,3.01
2022-12-08T01:31:48.659Z,3.03
2022-12-08T01:34:18.419Z,3.36
2022-12-08T01:36:45.772Z,3.42
2022-12-08T01:39:19.604Z,3.05
2022-12-08T01:41:47.809Z,2.79
2022-12-08T01:44:15.006Z,2.77
2022-12-08T01:46:47.334Z,2.69
2022-12-08T01:49:28.426Z,2.63
2022-12-08T01:52:25.105Z,3.05
2022-12-08T01:55:04.800Z,2.95
2022-12-08T01:57:42.091Z,3.10
2022-12-08T02:00:17.753Z,3.19
2022-12-08T02:03:04.591Z,3.37
2022-12-08T02:05:37.875Z,3.61
2022-12-08T02:08:11.359Z,3.20
2022-12-08T02:10:43.397Z,2.83
2022-12-08T02:13:17.374Z,2.47
2022-12-08T02:16:22.028Z,2.19
2022-12-08T02:19:48.022Z,2.18
2022-12-08T02:22:41.468Z,2.21
2022-12-08T02:25:35.608Z,2.51
2022-12-08T02:29:05.549Z,2.20
2022-12-08T02:32:18.052Z,1.83
2022-12-08T02:34:58.806Z,1.98
2022-12-08T02:37:46.562Z,2.11
2022-12-08T02:40:57.769Z,2.40
2022-12-08T02:43:48.217Z,2.59
2022-12-08T02:46:34.415Z,2.26
2022-12-08T02:49:03.565Z,2.21
2022-12-08T02:51:30.982Z,2.08
2022-12-08T02:53:59.146Z,1.78
2022-12-08T02:57:12.842Z,1.63
2022-12-08T03:00:11.301Z,1.59
2022-12-08T03:03:32.949Z,1.65
2022-12-08T03:06:37.100Z,1.79
2022-12-08T03:09:22.813Z,1.72
2022-12-08T03:12:40.129Z,1.85
2022-12-08T03:15:17.126Z,2.16
2022-12-08T03:17:55.639Z,2.40
2022-12-08T03:20:28.222Z,2.30
2022-12-08T03:23:00.596Z,2.20
2022-12-08T03:25:40.635Z,2.07
2022-12-08T03:28:08.324Z,2.11
2022-12-08T03:30:43.410Z,1.60
2022-12-08T03:33:24.247Z,1.51
2022-12-08T03:35:53.579Z,1.74
2022-12-08T03:38:22.520Z,1.79
2022-12-08T03:41:09.903Z,1.99
2022-12-08T03:43:40.187Z,1.84
2022-12-08T03:46:07.509Z,1.78
2022-12-08T03:48:34.673Z,1.85
2022-12-08T03:51:01.853Z,1.71
2022-12-08T03:53:29.247Z,2.06
2022-12-08T03:55:56.768Z,1.92
2022-12-08T03:58:24.153Z,1.45
2022-12-08T04:00:51.481Z,1.02
2022-12-08T04:03:18.832Z,1.04
2022-12-08T04:05:46.618Z,0.99
2022-12-08T04:08:14.247Z,0.71
2022-12-08T04:10:41.386Z,0.82
2022-12-08T04:13:08.524Z,0.94
2022-12-08T04:15:35.723Z,1.20
2022-12-08T04:18:02.939Z,1.34
2022-12-08T04:20:30.148Z,1.41
2022-12-08T04:22:58.664Z,1.42
2022-12-08T04:25:25.945Z,1.30
2022-12-08T04:27:53.104Z,1.17
2022-12-08T04:30:20.457Z,1.08
2022-12-08T04:32:47.803Z,0.72
2022-12-08T04:35:15.097Z,0.53
2022-12-08T04:37:43.194Z,0.77
2022-12-08T04:40:13.096Z,0.86
2022-12-08T04:42:40.602Z,1.18
2022-12-08T04:45:08.393Z,1.51
2022-12-08T04:47:35.899Z,1.62
2022-12-08T04:50:07.048Z,1.62
2022-12-08T04:52:35.083Z,1.58
2022-12-08T04:55:03.440Z,1.15
2022-12-08T04:57:30.771Z,1.05
2022-12-08T04:59:58.205Z,1.33
2022-12-08T05:02:26.116Z,1.52
2022-12-08T05:05:18.514Z,1.17
2022-12-08T05:07:45.945Z,0.69
2022-12-08T05:10:13.346Z,0.92
2022-12-08T05:12:40.555Z,1.11
2022-12-08T05:15:09.718Z,1.18
2022-12-08T05:17:37.017Z,0.87
2022-12-08T05:20:06.159Z,1.28
2022-12-08T05:22:33.727Z,1.03
2022-12-08T05:25:01.281Z,0.85
2022-12-08T05:27:28.592Z,1.23
2022-12-08T05:29:56.621Z,1.26
2022-12-08T05:32:24.547Z,1.12
2022-12-08T05:34:51.871Z,1.09
2022-12-08T05:37:19.186Z,0.96
2022-12-08T05:39:46.560Z,1.02
2022-12-08T05:42:13.911Z,0.81
2022-12-08T05:44:41.268Z,0.82
2022-12-08T05:47:08.651Z,0.95
2022-12-08T05:49:42.841Z,0.96
2022-12-08T05:52:10.238Z,0.95
2022-12-08T05:54:38.077Z,0.96
2022-12-08T05:57:05.785Z,0.71
2022-12-08T05:59:33.249Z,0.49
2022-12-08T06:02:06.389Z,0.65
2022-12-08T06:04:34.503Z,0.70
2022-12-08T06:07:01.767Z,0.99
2022-12-08T06:09:29.078Z,0.86
2022-12-08T06:11:59.316Z,0.63
2022-12-08T06:14:27.000Z,0.65
2022-12-08T06:16:55.961Z,0.73
2022-12-08T06:19:23.193Z,0.59
2022-12-08T06:21:50.558Z,0.49
2022-12-08T06:24:19.161Z,0.27
2022-12-08T06:26:49.304Z,0.24
2022-12-08T06:29:16.742Z,0.32
2022-12-08T06:31:44.636Z,0.13
2022-12-08T06:34:12.298Z,0.26
2022-12-08T06:36:40.120Z,0.41
2022-12-08T06:39:09.209Z,0.12
2022-12-08T06:41:56.607Z,0.64
2022-12-08T06:44:24.102Z,1.32
2022-12-08T06:46:51.349Z,1.39
2022-12-08T06:49:18.634Z,1.12
2022-12-08T06:51:45.964Z,0.72
2022-12-08T06:54:16.449Z,0.38
2022-12-08T06:56:43.686Z,0.56
2022-12-08T06:59:16.023Z,0.55
2022-12-08T07:01:44.042Z,0.41
2022-12-08T07:04:11.774Z,0.24
2022-12-08T07:06:39.379Z,-0.05
2022-12-08T07:09:06.614Z,-0.06
2022-12-08T07:11:33.851Z,0.08
2022-12-08T07:14:01.262Z,0.62
2022-12-08T07:16:28.833Z,1.05
2022-12-08T07:18:56.287Z,0.97
2022-12-08T07:21:23.841Z,0.97
2022-12-08T07:23:55.973Z,0.98
2022-12-08T07:26:25.819Z,1.05
2022-12-08T07:28:55.714Z,1.04
2022-12-08T07:31:28.992Z,1.45
2022-12-08T07:34:02.555Z,1.52
2022-12-08T07:36:32.508Z,1.32
2022-12-08T07:39:00.200Z,1.10
2022-12-08T07:41:29.272Z,1.63
2022-12-08T07:43:57.544Z,1.72
2022-12-08T07:46:35.177Z,1.60
2022-12-08T07:49:09.498Z,1.50
2022-12-08T07:51:44.339Z,2.06
2022-12-08T07:54:13.847Z,2.00
2022-12-08T07:56:41.511Z,1.74
2022-12-08T07:59:08.993Z,1.73
2022-12-08T08:01:36.527Z,1.88
2022-12-08T08:04:06.286Z,1.94
2022-12-08T08:06:36.266Z,1.84
2022-12-08T08:09:06.673Z,2.13
2022-12-08T08:11:34.124Z,2.14
2022-12-08T08:14:01.465Z,2.33
2022-12-08T08:16:33.520Z,2.50
2022-12-08T08:19:03.854Z,2.42
2022-12-08T08:21:46.944Z,2.13
2022-12-08T08:24:14.267Z,2.26
2022-12-08T08:26:47.071Z,2.44
2022-12-08T08:29:15.761Z,2.47
2022-12-08T08:31:43.273Z,2.76
2022-12-08T08:34:10.596Z,2.82
2022-12-08T08:36:38.774Z,2.74
2022-12-08T08:39:08.877Z,2.77
2022-12-08T08:41:36.120Z,3.12
2022-12-08T08:44:03.785Z,3.14
2022-12-08T08:46:32.874Z,2.76
2022-12-08T08:49:01.287Z,2.66
2022-12-08T08:51:28.636Z,2.80
2022-12-08T08:53:55.887Z,3.18
2022-12-08T08:56:23.421Z,3.01
2022-12-08T08:58:52.908Z,3.01
2022-12-08T09:01:27.857Z,3.48
2022-12-08T09:03:56.278Z,3.36
2022-12-08T09:06:24.846Z,3.61
2022-12-08T09:08:52.352Z,3.91
2022-12-08T09:11:19.940Z,3.85
2022-12-08T09:13:53.452Z,3.88
2022-12-08T09:16:23.665Z,3.89
2022-12-08T09:18:52.127Z,4.61
2022-12-08T09:21:26.007Z,5.91
2022-12-08T09:23:58.791Z,8.13
2022-12-08T09:26:28.821Z,10.16
2022-12-08T09:28:57.941Z,11.57
2022-12-08T09:31:25.799Z,12.91
2022-12-08T09:33:53.380Z,14.06
2022-12-08T09:36:21.474Z,14.25
2022-12-08T09:38:50.278Z,14.69
2022-12-08T09:41:36.494Z,15.17
2022-12-08T09:44:55.307Z,15.45
2022-12-08T09:47:35.716Z,16.83
2022-12-08T09:50:53.639Z,17.48
2022-12-08T09:53:35.243Z,17.91
2022-12-08T09:56:16.637Z,18.60
2022-12-08T09:59:04.770Z,17.23
2022-12-08T10:01:42.300Z,17.31
2022-12-08T10:04:36.925Z,17.05
2022-12-08T10:07:17.977Z,18.26
2022-12-08T10:10:36.947Z,18.67
2022-12-08T10:13:28.175Z,20.64
2022-12-08T10:16:35.335Z,21.23
2022-12-08T10:19:14.377Z,20.60
2022-12-08T10:21:42.426Z,20.94
2022-12-08T10:24:37.938Z,20.79
2022-12-08T10:27:11.872Z,21.48
2022-12-08T10:29:40.773Z,22.20
2022-12-08T10:32:24.670Z,21.38
2022-12-08T10:35:11.020Z,20.93
2022-12-08T10:37:39.886Z,20.85
2022-12-08T10:40:17.549Z,21.83
2022-12-08T10:42:53.139Z,22.36
2022-12-08T10:45:41.590Z,22.62
2022-12-08T10:48:31.198Z,22.24
2022-12-08T10:51:00.564Z,21.97
2022-12-08T10:53:33.258Z,22.04
2022-12-08T10:56:03.460Z,22.28
2022-12-08T10:58:47.259Z,21.61
2022-12-08T11:01:31.203Z,21.12
2022-12-08T11:04:10.920Z,21.76
2022-12-08T11:06:41.140Z,21.94
2022-12-08T11:09:48.597Z,21.54
2022-12-08T11:12:22.237Z,21.74
2022-12-08T11:15:01.362Z,22.35
2022-12-08T11:17:40.671Z,21.65
2022-12-08T11:20:10.364Z,22.08
2022-12-08T11:22:41.370Z,22.15
2022-12-08T11:25:10.397Z,22.58
2022-12-08T11:27:46.785Z,21.87
2022-12-08T11:30:27.516Z,21.32
2022-12-08T11:33:19.698Z,20.81
2022-12-08T11:35:59.320Z,18.84
2022-12-08T11:38:41.315Z,19.23
2022-12-08T11:41:22.912Z,19.52
2022-12-08T11:44:24.345Z,18.76
2022-12-08T11:46:59.920Z,18.70
2022-12-08T11:49:40.366Z,19.63
2022-12-08T11:52:34.645Z,19.60
2022-12-08T11:55:41.567Z,18.42
2022-12-08T11:58:52.373Z,19.39
2022-12-08T12:01:28.085Z,19.46
2022-12-08T12:04:24.702Z,19.63
2022-12-08T12:08:04.067Z,18.11
2022-12-08T12:11:49.585Z,18.61
2022-12-08T12:14:50.814Z,19.42
2022-12-08T12:18:05.497Z,18.12
2022-12-08T12:20:54.457Z,17.49
2022-12-08T12:23:47.394Z,16.32
2022-12-08T12:26:39.576Z,14.89
2022-12-08T12:29:27.760Z,13.90
2022-12-08T12:32:07.546Z,13.41
2022-12-08T12:34:53.581Z,13.45
2022-12-08T12:37:38.643Z,14.24
2022-12-08T12:40:23.623Z,16.08
2022-12-08T12:42:57.175Z,16.94
2022-12-08T12:45:34.586Z,17.20
2022-12-08T12:48:04.077Z,17.41
2022-12-08T12:50:34.271Z,17.47
2022-12-08T12:53:26.878Z,17.13
2022-12-08T12:56:02.545Z,16.85
2022-12-08T12:58:32.724Z,16.73
2022-12-08T13:01:17.874Z,14.65
2022-12-08T13:04:35.665Z,12.43
2022-12-08T13:07:04.776Z,11.87
2022-12-08T13:09:37.846Z,12.03
2022-12-08T13:12:20.318Z,12.23
2022-12-08T13:14:51.701Z,12.41
2022-12-08T13:17:38.383Z,12.95
2022-12-08T13:20:19.747Z,13.11
2022-12-08T13:22:54.663Z,12.91
2022-12-08T13:25:39.958Z,12.53
2022-12-08T13:28:16.288Z,12.08
2022-12-08T13:31:01.427Z,11.52
2022-12-08T13:33:38.994Z,11.55
2022-12-08T13:36:46.247Z,11.63
2022-12-08T13:39:29.953Z,11.88
2022-12-08T13:42:12.814Z,12.10
2022-12-08T13:45:24.087Z,11.86
2022-12-08T13:48:55.854Z,11.88
2022-12-08T13:55:19.734Z,11.29
2022-12-08T13:57:36.320Z,11.27
2022-12-08T14:00:30.442Z,10.83
2022-12-08T14:03:01.915Z,10.81
2022-12-08T14:06:11.245Z,10.89
2022-12-08T14:11:44.243Z,10.86
2022-12-08T14:15:00.701Z,10.52
2022-12-08T14:17:23.014Z,10.10
2022-12-08T14:20:13.580Z,10.06
2022-12-08T14:22:42.093Z,10.48
2022-12-08T14:25:17.316Z,10.27
2022-12-08T14:27:46.788Z,10.00
2022-12-08T14:30:14.469Z,9.57
2022-12-08T14:33:03.415Z,9.49
2022-12-08T14:35:34.803Z,9.44
2022-12-08T14:38:16.150Z,9.47
2022-12-08T14:40:47.914Z,9.29
2022-12-08T14:43:29.973Z,9.47
2022-12-08T14:46:19.437Z,9.37
2022-12-08T14:48:47.665Z,9.37
2022-12-08T14:51:23.731Z,9.24
2022-12-08T14:54:09.442Z,9.22
2022-12-08T14:56:43.637Z,8.87
2022-12-08T14:59:37.230Z,8.67
2022-12-08T15:02:25.349Z,8.66
2022-12-08T15:05:17.848Z,8.80
2022-12-08T15:08:05.010Z,8.67
2022-12-08T15:10:39.898Z,8.55
2022-12-08T15:13:22.991Z,8.93
2022-12-08T15:15:56.310Z,8.95
2022-12-08T15:18:40.630Z,8.54
2022-12-08T15:21:12.843Z,8.14
2022-12-08T15:23:48.099Z,8.15
2022-12-08T15:26:25.225Z,8.41
2022-12-08T15:28:54.150Z,8.50
2022-12-08T15:31:21.981Z,8.33
2022-12-08T15:33:49.259Z,8.53
2022-12-08T15:36:16.580Z,8.19
2022-12-08T15:38:44.470Z,8.32
2022-12-08T15:41:15.283Z,8.17
2022-12-08T15:43:43.159Z,8.28
2022-12-08T15:46:12.033Z,8.41
2022-12-08T15:48:39.720Z,8.48
2022-12-08T15:51:07.400Z,7.94
2022-12-08T15:53:34.900Z,8.09
2022-12-08T15:58:57.245Z,8.04
2022-12-08T16:01:25.885Z,7.89
2022-12-08T16:09:41.486Z,7.67
2022-12-08T16:15:51.593Z,7.63
2022-12-08T16:18:30.400Z,7.59
2022-12-08T16:23:50.850Z,7.60
2022-12-08T16:29:20.732Z,7.54
2022-12-08T16:31:49.161Z,7.59
2022-12-08T16:34:16.593Z,7.67
2022-12-08T16:36:43.894Z,7.64
2022-12-08T16:39:14.593Z,7.40
2022-12-08T16:42:00.911Z,7.59
2022-12-08T16:44:28.630Z,7.44
2022-12-08T16:46:55.929Z,7.51
2022-12-08T16:49:23.155Z,7.21
2022-12-08T16:51:50.547Z,7.28
2022-12-08T16:54:18.120Z,7.24
2022-12-08T16:56:45.340Z,7.39
2022-12-08T16:59:12.623Z,7.57
2022-12-08T17:01:44.667Z,7.58
2022-12-08T17:04:31.177Z,7.46
2022-12-08T17:07:00.035Z,7.17
2022-12-08T17:09:28.730Z,7.42
2022-12-08T17:12:01.892Z,7.70
2022-12-08T17:14:35.304Z,7.46
2022-12-08T17:17:03.345Z,7.90
2022-12-08T17:19:30.677Z,7.90
2022-12-08T17:21:58.154Z,7.52
2022-12-08T17:24:29.093Z,7.46
2022-12-08T17:27:03.852Z,7.14
2022-12-08T17:29:32.886Z,6.54
2022-12-08T17:32:01.538Z,6.55
2022-12-08T17:34:28.948Z,7.18
2022-12-08T17:36:56.540Z,7.17
2022-12-08T17:39:23.842Z,7.29
2022-12-08T17:41:51.136Z,7.33
2022-12-08T17:44:20.045Z,7.25
2022-12-08T17:46:52.420Z,7.24
2022-12-08T17:49:26.795Z,7.08
2022-12-08T17:51:59.405Z,7.17
2022-12-08T17:54:48.274Z,7.72
2022-12-08T17:57:21.232Z,7.69
2022-12-08T17:59:49.574Z,7.33
2022-12-08T18:02:47.219Z,7.23
2022-12-08T18:05:14.944Z,7.19
2022-12-08T18:07:42.602Z,7.19
2022-12-08T18:10:10.576Z,7.32
2022-12-08T18:12:38.079Z,7.23
2022-12-08T18:15:11.383Z,7.21
2022-12-08T18:17:41.729Z,7.31
2022-12-08T18:20:10.460Z,7.19
2022-12-08T18:22:38.239Z,7.25
2022-12-08T18:25:07.708Z,7.32
2022-12-08T18:27:41.453Z,7.17
2022-12-08T18:30:17.930Z,7.15
2022-12-08T18:32:46.163Z,7.01
2022-12-08T18:35:14.699Z,6.96
2022-12-08T18:37:43.210Z,6.67
2022-12-08T18:40:12.184Z,7.01
2022-12-08T18:42:39.764Z,6.83
2022-12-08T18:45:08.481Z,6.81
2022-12-08T18:47:40.651Z,6.32
2022-12-08T18:50:11.785Z,6.21
2022-12-08T18:52:39.416Z,6.41
2022-12-08T18:55:08.130Z,6.53
2022-12-08T18:57:42.729Z,6.23
2022-12-08T19:00:17.355Z,6.19
2022-12-08T19:03:14.257Z,6.46
2022-12-08T19:05:41.750Z,6.38
2022-12-08T19:08:09.138Z,6.29
2022-12-08T19:10:38.370Z,6.31
2022-12-08T19:13:08.971Z,6.15
2022-12-08T19:15:36.370Z,5.96
2022-12-08T19:18:07.056Z,5.92
2022-12-08T19:20:34.524Z,5.86
2022-12-08T19:23:02.033Z,5.74
2022-12-08T19:25:29.360Z,5.82
2022-12-08T19:27:56.876Z,5.69
2022-12-08T19:30:27.592Z,5.64
2022-12-08T19:32:57.293Z,5.57
2022-12-08T19:35:24.825Z,5.51
2022-12-08T19:37:53.341Z,5.34
2022-12-08T19:40:42.381Z,5.43
2022-12-08T19:43:41.867Z,5.09
2022-12-08T19:46:11.194Z,5.00
2022-12-08T19:48:39.298Z,4.77
2022-12-08T19:51:07.114Z,4.68
2022-12-08T19:53:47.569Z,4.08
2022-12-08T19:56:15.333Z,3.75
2022-12-08T19:58:45.253Z,3.82
2022-12-08T20:01:18.979Z,3.92
2022-12-08T20:03:48.723Z,3.86
2022-12-08T20:06:18.604Z,3.82
2022-12-08T20:08:50.765Z,3.47
2022-12-08T20:11:18.598Z,3.51
2022-12-08T20:17:39.242Z,3.22
2022-12-08T20:20:09.674Z,3.40
2022-12-08T20:22:37.760Z,3.23
2022-12-08T20:25:06.134Z,3.15
2022-12-08T20:27:33.629Z,3.03
2022-12-08T20:30:26.798Z,3.06
2022-12-08T20:32:54.735Z,3.00
2022-12-08T20:35:22.638Z,2.83
2022-12-08T20:37:50.753Z,2.86
2022-12-08T20:40:18.252Z,2.79
2022-12-08T20:42:45.658Z,2.57
2022-12-08T20:45:13.188Z,2.54
2022-12-08T20:47:40.632Z,2.21
2022-12-08T20:50:09.858Z,1.86
2022-12-08T20:52:38.031Z,2.11
2022-12-08T20:55:07.984Z,2.44
2022-12-08T20:57:41.009Z,2.58
2022-12-08T21:00:10.466Z,2.59
2022-12-08T21:02:45.180Z,2.59
2022-12-08T21:05:16.408Z,2.39
2022-12-08T21:07:44.498Z,2.29
2022-12-08T21:10:12.420Z,2.39
2022-12-08T21:12:40.275Z,1.93
2022-12-08T21:15:17.024Z,1.62
2022-12-08T21:17:53.590Z,1.55
2022-12-08T21:20:42.744Z,1.51
2022-12-08T21:23:11.498Z,1.65
2022-12-08T21:25:45.763Z,1.87
2022-12-08T21:28:13.895Z,1.83
2022-12-08T21:30:43.533Z,1.62
2022-12-08T21:33:11.234Z,1.56
2022-12-08T21:35:38.842Z,1.94
2022-12-08T21:38:07.452Z,1.91
2022-12-08T21:40:35.998Z,1.96
2022-12-08T21:43:24.205Z,1.88
2022-12-08T21:45:52.686Z,1.42
2022-12-08T21:48:21.029Z,1.31
2022-12-08T21:50:48.748Z,1.08
2022-12-08T21:53:16.568Z,0.94
2022-12-08T21:55:44.100Z,1.42
2022-12-08T21:58:11.579Z,1.68
2022-12-08T22:00:39.362Z,1.61
2022-12-08T22:03:14.343Z,1.24
2022-12-08T22:05:44.378Z,1.46
2022-12-08T22:08:11.752Z,1.61
2022-12-08T22:10:39.680Z,1.81
2022-12-08T22:13:07.259Z,1.83
2022-12-08T22:15:35.361Z,1.60
2022-12-08T22:18:03.836Z,1.19
2022-12-08T22:20:31.495Z,0.90
2022-12-08T22:22:59.003Z,0.94
2022-12-08T22:25:26.465Z,0.76
2022-12-08T22:27:53.950Z,0.87
2022-12-08T22:30:21.572Z,1.04
2022-12-08T22:32:49.154Z,1.15
2022-12-08T22:35:16.517Z,1.07
2022-12-08T22:37:43.840Z,1.13
2022-12-08T22:40:12.880Z,1.02
2022-12-08T22:42:40.222Z,0.89
2022-12-08T22:45:10.077Z,0.77
2022-12-08T22:47:40.135Z,0.96
2022-12-08T22:50:09.283Z,1.20
2022-12-08T22:52:37.065Z,1.34
2022-12-08T22:55:05.208Z,1.26
2022-12-08T22:57:32.763Z,1.01
2022-12-08T23:00:00.543Z,0.85
2022-12-08T23:02:28.045Z,1.01
2022-12-08T23:04:58.658Z,0.83
2022-12-08T23:07:49.092Z,0.60
2022-12-08T23:10:14.574Z,0.54
2022-12-08T23:12:42.043Z,0.36
2022-12-08T23:15:22.144Z,0.36
2022-12-08T23:17:49.768Z,0.53
2022-12-08T23:20:17.793Z,0.96
2022-12-08T23:22:45.480Z,1.12
2022-12-08T23:25:13.077Z,0.92
2022-12-08T23:27:40.804Z,0.59
2022-12-08T23:30:12.352Z,0.63
2022-12-08T23:32:40.104Z,0.68
2022-12-08T23:35:09.039Z,1.30
2022-12-08T23:37:36.585Z,0.99
2022-12-08T23:40:05.668Z,0.99
2022-12-08T23:42:33.410Z,1.04
2022-12-08T23:45:00.868Z,0.95
2022-12-08T23:47:28.398Z,1.03
2022-12-08T23:49:55.912Z,0.94
2022-12-08T23:52:24.406Z,0.93
2022-12-08T23:54:52.702Z,0.84
2022-12-08T23:57:21.342Z,1.07
2022-12-08T23:59:55.919Z,0.97
